Time;durP1;ratioP1;P1;durP2;ratioP2;P2;SDS_P1;SDS_P2;PMS_P1;PMS_P2;Temp;Humidity;BMP_temperature;BMP_pressure;BME280_temperature;BME280_humidity;BME280_pressure;Samples;Min_cycle;Max_cycle;Signal;HPM_P1;HPM_P2
2023/11/29 00:01:47;;;;;;;0.20;0.20;;;;;;;4.60;71.69;100401.31;5076762;28;20032;-83
2023/11/29 00:04:13;;;;;;;0.20;0.20;;;;;;;4.64;71.25;100408.31;5084096;28;20417;-83
2023/11/29 00:06:39;;;;;;;0.20;0.20;;;;;;;4.65;71.49;100405.69;5087144;28;20035;-84
2023/11/29 00:09:05;;;;;;;0.20;0.20;;;;;;;4.61;71.91;100405.69;5089982;28;20380;-83
2023/11/29 00:11:31;;;;;;;0.30;0.30;;;;;;;4.61;72.41;100397.81;5083928;28;20107;-83
2023/11/29 00:13:57;;;;;;;0.20;0.20;;;;;;;4.62;71.83;100383.84;5077274;28;20039;-83
2023/11/29 00:16:24;;;;;;;0.20;0.20;;;;;;;4.62;72.33;100383.84;5081265;28;20062;-84
2023/11/29 00:18:50;;;;;;;0.30;0.30;;;;;;;4.62;72.55;100378.59;5078911;28;20031;-84
2023/11/29 00:21:16;;;;;;;0.20;0.20;;;;;;;4.64;72.39;100371.59;5089113;28;20032;-84
2023/11/29 00:23:42;;;;;;;0.20;0.20;;;;;;;4.72;72.33;100371.56;5089172;28;20043;-86
2023/11/29 00:26:08;;;;;;;0.20;0.20;;;;;;;4.67;72.13;100361.97;5080146;28;20042;-86
2023/11/29 00:28:35;;;;;;;0.10;0.10;;;;;;;4.64;72.73;100367.19;5075702;28;20122;-86
2023/11/29 00:31:01;;;;;;;0.20;0.20;;;;;;;4.72;72.49;100368.94;5086358;28;20420;-86
2023/11/29 00:33:27;;;;;;;0.28;0.28;;;;;;;4.74;72.35;100356.69;5072293;28;20031;-85
2023/11/29 00:35:55;;;;;;;0.20;0.20;;;;;;;4.78;72.36;100353.16;5076918;28;20032;-87
2023/11/29 00:38:21;;;;;;;0.20;0.20;;;;;;;4.82;72.18;100354.88;5072607;28;20021;-84
2023/11/29 00:40:47;;;;;;;0.20;0.20;;;;;;;4.90;71.46;100346.97;5081320;28;20032;-85
2023/11/29 00:43:14;;;;;;;0.20;0.20;;;;;;;4.88;71.37;100339.09;5074765;28;20111;-84
2023/11/29 00:45:40;;;;;;;0.20;0.20;;;;;;;4.92;71.59;100334.72;5084217;28;20372;-84
2023/11/29 00:48:06;;;;;;;0.20;0.20;;;;;;;4.91;70.96;100332.97;5076164;28;20024;-83
2023/11/29 00:50:33;;;;;;;0.20;0.20;;;;;;;4.82;70.83;100329.53;5092526;28;20046;-83
2023/11/29 00:52:59;;;;;;;0.20;0.20;;;;;;;4.90;70.73;100325.97;5078336;28;20033;-86
2023/11/29 00:55:25;;;;;;;0.20;0.20;;;;;;;4.90;70.43;100325.97;5081029;28;20143;-84
2023/11/29 00:57:52;;;;;;;0.25;0.25;;;;;;;4.91;70.46;100327.72;5083207;28;20563;-85
2023/11/29 01:00:18;;;;;;;0.20;0.20;;;;;;;4.88;70.12;100319.88;5087609;28;20049;-85
2023/11/29 01:02:44;;;;;;;0.20;0.20;;;;;;;4.84;70.34;100319.88;5096984;28;20024;-84
2023/11/29 01:05:11;;;;;;;0.20;0.20;;;;;;;4.84;70.25;100306.75;5091242;28;20033;-83
2023/11/29 01:07:37;;;;;;;0.20;0.20;;;;;;;4.87;70.26;100321.59;5091032;28;20028;-83
2023/11/29 01:10:03;;;;;;;0.20;0.20;;;;;;;4.84;70.10;100329.50;5105824;28;20036;-82
2023/11/29 01:12:29;;;;;;;0.20;0.20;;;;;;;4.84;70.42;100326.88;5084932;28;20043;-83
2023/11/29 01:14:55;;;;;;;0.20;0.20;;;;;;;4.87;70.18;100321.59;5089227;28;20027;-82
2023/11/29 01:17:23;;;;;;;0.20;0.20;;;;;;;4.85;70.26;100313.75;5080577;28;20039;-83
2023/11/29 01:19:49;;;;;;;0.22;0.22;;;;;;;4.88;70.54;100322.50;5076877;28;20629;-84
2023/11/29 01:22:15;;;;;;;0.20;0.20;;;;;;;4.86;70.71;100327.75;5083795;28;20589;-84
2023/11/29 01:24:41;;;;;;;0.25;0.25;;;;;;;4.94;70.63;100317.22;5081773;28;20112;-84
2023/11/29 01:27:08;;;;;;;0.20;0.20;;;;;;;4.92;70.25;100308.47;5085230;28;20028;-84
2023/11/29 01:29:34;;;;;;;0.10;0.10;;;;;;;5.04;70.25;100299.66;5078447;28;20039;-86
2023/11/29 01:32:00;;;;;;;0.28;0.28;;;;;;;5.14;68.64;100294.31;5079541;28;20032;-85
2023/11/29 01:34:26;;;;;;;0.20;0.20;;;;;;;5.29;67.44;100301.22;5084520;28;20422;-86
2023/11/29 01:36:52;;;;;;;0.20;0.20;;;;;;;5.50;66.87;100300.19;5084928;28;20399;-87
2023/11/29 01:39:18;;;;;;;0.20;0.20;;;;;;;5.60;66.41;100292.25;5082676;28;20115;-86
2023/11/29 01:41:45;;;;;;;0.20;0.20;;;;;;;5.64;65.30;100291.34;5087307;28;20040;-86
2023/11/29 01:44:11;;;;;;;0.20;0.20;;;;;;;5.75;65.55;100293.88;5089135;28;20029;-85
2023/11/29 01:46:37;;;;;;;0.20;0.20;;;;;;;5.69;65.04;100279.03;5078732;28;20028;-85
2023/11/29 01:49:04;;;;;;;0.10;0.10;;;;;;;5.78;66.03;100284.22;5090335;28;20025;-86
2023/11/29 01:51:30;;;;;;;0.20;0.20;;;;;;;5.80;65.67;100273.66;5082395;28;20035;-83
2023/11/29 01:53:59;;;;;;;0.20;0.20;;;;;;;5.69;65.21;100268.50;5076640;28;20035;-85
2023/11/29 01:56:26;;;;;;;0.17;0.17;;;;;;;5.82;65.92;100272.78;5075216;28;20024;-86
2023/11/29 01:58:52;;;;;;;0.20;0.20;;;;;;;5.86;66.47;100270.97;5084105;28;20036;-83
2023/11/29 02:01:19;;;;;;;0.20;0.20;;;;;;;5.95;65.96;100265.63;5079196;28;20027;-86
2023/11/29 02:03:45;;;;;;;0.30;0.30;;;;;;;5.92;64.66;100263.03;5078837;28;20031;-84
2023/11/29 02:06:12;;;;;;;0.20;0.20;;;;;;;5.93;64.41;100258.63;5091667;28;20012;-84
2023/11/29 02:08:38;;;;;;;0.22;0.22;;;;;;;5.95;64.74;100259.50;5079411;28;20032;-85
2023/11/29 02:11:04;;;;;;;0.20;0.20;;;;;;;5.88;63.64;100252.56;5080357;28;20035;-84
2023/11/29 02:13:31;;;;;;;0.20;0.20;;;;;;;5.98;64.76;100254.19;5073996;28;20021;-84
2023/11/29 02:15:57;;;;;;;0.20;0.20;;;;;;;5.97;63.98;100260.38;5075830;28;20020;-84
2023/11/29 02:18:23;;;;;;;0.20;0.20;;;;;;;6.08;63.34;100253.25;5076104;28;20100;-84
2023/11/29 02:20:49;;;;;;;0.20;0.20;;;;;;;6.18;64.22;100247.88;5075765;28;20028;-85
2023/11/29 02:26:12;;;;;;;0.17;0.17;;;;;;;6.24;63.29;100239.91;5114049;27;20665;-83
2023/11/29 02:28:39;;;;;;;0.10;0.10;;;;;;;6.26;63.26;100244.28;5115893;28;20027;-84
2023/11/29 02:31:05;;;;;;;0.20;0.20;;;;;;;6.31;61.79;100237.19;5115879;28;20181;-83
2023/11/29 02:33:31;;;;;;;0.20;0.20;;;;;;;6.35;62.99;100248.56;5115330;28;20028;-84
2023/11/29 02:35:57;;;;;;;0.20;0.20;;;;;;;6.45;64.50;100241.41;5115666;28;20031;-83
2023/11/29 02:38:23;;;;;;;0.20;0.20;;;;;;;6.42;65.14;100250.22;5114368;28;20028;-83
2023/11/29 02:40:49;;;;;;;0.25;0.25;;;;;;;6.45;65.42;100252.81;5114728;28;20038;-83
2023/11/29 02:43:16;;;;;;;0.20;0.20;;;;;;;6.26;66.12;100262.69;5115219;28;20118;-84
2023/11/29 02:45:42;;;;;;;0.40;0.40;;;;;;;6.16;67.44;100276.84;5113849;28;20382;-83
2023/11/29 02:48:08;;;;;;;0.55;0.55;;;;;;;5.99;68.37;100279.66;5114241;28;20036;-82
2023/11/29 02:50:34;;;;;;;0.20;0.20;;;;;;;5.75;68.28;100278.97;5117275;28;20032;-83
2023/11/29 02:53:00;;;;;;;0.20;0.20;;;;;;;5.70;68.62;100246.59;5117197;28;20042;-82
2023/11/29 02:55:26;;;;;;;0.20;0.20;;;;;;;5.60;68.44;100252.84;5118510;28;20032;-83
2023/11/29 02:57:56;;;;;;;0.20;0.20;;;;;;;5.58;69.04;100228.31;5116717;28;20062;-84
2023/11/29 03:00:22;;;;;;;0.20;0.20;;;;;;;5.54;69.20;100213.47;5117375;28;20028;-84
2023/11/29 03:02:49;;;;;;;0.20;0.20;;;;;;;5.46;69.19;100217.03;5117701;28;20050;-83
2023/11/29 03:05:15;;;;;;;0.20;0.20;;;;;;;5.44;69.38;100207.44;5117161;28;20051;-84
2023/11/29 03:07:41;;;;;;;0.20;0.20;;;;;;;5.39;69.51;100214.47;5117862;28;20268;-83
2023/11/29 03:10:07;;;;;;;0.20;0.20;;;;;;;5.42;69.69;100202.19;5118507;28;20028;-83
2023/11/29 03:12:33;;;;;;;0.20;0.20;;;;;;;5.46;69.78;100203.91;5115745;28;20032;-83
2023/11/29 03:14:59;;;;;;;0.20;0.20;;;;;;;5.54;69.96;100197.72;5122041;28;20028;-81
2023/11/29 03:17:26;;;;;;;0.20;0.20;;;;;;;5.49;69.98;100185.47;5118442;28;20040;-83
2023/11/29 03:19:52;;;;;;;1.13;1.08;;;;;;;5.41;70.09;100192.56;5119041;28;20028;-83
2023/11/29 03:22:18;;;;;;;0.20;0.20;;;;;;;5.40;70.19;100175.06;5117459;28;20056;-84
2023/11/29 03:24:46;;;;;;;0.20;0.20;;;;;;;5.41;70.05;100171.53;5117096;28;20016;-83
2023/11/29 03:27:13;;;;;;;0.20;0.20;;;;;;;5.41;70.06;100179.44;5115831;28;20039;-83
2023/11/29 03:29:39;;;;;;;0.20;0.20;;;;;;;5.36;70.04;100173.34;5115147;28;20039;-83
2023/11/29 03:32:05;;;;;;;0.10;0.10;;;;;;;5.41;70.01;100174.19;5114308;28;20023;-84
2023/11/29 03:34:31;;;;;;;0.20;0.20;;;;;;;5.36;70.08;100160.22;5115942;28;20043;-84
2023/11/29 03:36:57;;;;;;;8.68;2.65;;;;;;;5.37;70.16;100161.06;5106000;28;20270;-84
2023/11/29 03:39:23;;;;;;;0.20;0.20;;;;;;;5.44;70.03;100155.75;5099354;28;20392;-83
2023/11/29 03:41:50;;;;;;;0.20;0.20;;;;;;;5.47;70.29;100154.84;5102027;28;20032;-83
2023/11/29 03:44:16;;;;;;;0.20;0.20;;;;;;;5.59;70.08;100156.47;5101259;28;20402;-84
2023/11/29 03:46:43;;;;;;;0.20;0.20;;;;;;;5.54;70.12;100202.97;5102344;28;20036;-84
2023/11/29 03:49:09;;;;;;;0.20;0.20;;;;;;;5.53;69.67;100174.94;5102524;28;20031;-84
2023/11/29 03:51:35;;;;;;;0.20;0.20;;;;;;;5.56;69.56;100160.00;5103804;28;20039;-82
2023/11/29 03:54:01;;;;;;;0.20;0.20;;;;;;;5.62;69.96;100159.06;5102932;28;20028;-82
2023/11/29 03:56:27;;;;;;;0.20;0.20;;;;;;;5.65;69.64;100165.16;5104195;28;20035;-83
2023/11/29 03:58:54;;;;;;;0.20;0.20;;;;;;;5.68;69.86;100156.38;5103276;28;20028;-83
2023/11/29 04:01:20;;;;;;;0.20;0.20;;;;;;;5.38;69.35;100171.56;5102287;28;20024;-82
2023/11/29 04:03:46;;;;;;;0.10;0.10;;;;;;;5.28;69.25;100148.91;5104083;28;20024;-82
2023/11/29 04:06:24;;;;;;;0.20;0.20;;;;;;;5.38;69.01;100145.28;5116401;28;20016;-83
2023/11/29 04:08:52;;;;;;;0.10;0.10;;;;;;;5.24;69.35;100155.06;5109837;28;20040;-82
2023/11/29 04:11:18;;;;;;;0.20;0.20;;;;;;;4.97;70.00;100149.16;5117092;28;20016;-81
2023/11/29 04:13:44;;;;;;;0.20;0.20;;;;;;;4.93;69.95;100136.97;5117556;28;20008;-78
2023/11/29 04:16:21;;;;;;;0.20;0.20;;;;;;;4.97;69.93;100138.66;5117867;28;20035;-80
2023/11/29 04:18:48;;;;;;;0.15;0.15;;;;;;;4.83;70.29;100131.75;5117505;28;20046;-79
2023/11/29 04:21:35;;;;;;;0.10;0.10;;;;;;;4.91;70.28;100128.22;5115217;28;20327;-82
2023/11/29 04:24:01;;;;;;;0.20;0.20;;;;;;;4.81;70.10;100128.31;5116211;28;20020;-82
2023/11/29 04:29:08;;;;;;;0.17;0.17;;;;;;;4.85;70.41;100119.50;5070071;27;20387;-85
2023/11/29 04:31:35;;;;;;;0.20;0.20;;;;;;;4.93;69.98;100102.81;5045616;28;20033;-85
2023/11/29 04:34:02;;;;;;;0.20;0.20;;;;;;;4.93;70.22;100105.44;5047822;28;20029;-85
2023/11/29 04:36:28;;;;;;;0.10;0.10;;;;;;;4.89;69.45;100099.34;5047574;28;20030;-84
2023/11/29 04:38:55;;;;;;;0.20;0.20;;;;;;;4.92;69.68;100114.22;5046944;28;20037;-85
2023/11/29 04:41:22;;;;;;;0.13;0.13;;;;;;;4.96;69.84;100127.31;5046597;28;20112;-83
2023/11/29 04:43:49;;;;;;;0.10;0.10;;;;;;;5.00;69.58;100107.16;5046819;28;20037;-84
2023/11/29 04:46:16;;;;;;;0.20;0.20;;;;;;;5.07;69.39;100110.56;5047439;28;20037;-84
2023/11/29 04:48:44;;;;;;;0.20;0.20;;;;;;;5.02;69.59;100118.47;5047983;28;20033;-85
2023/11/29 04:51:11;;;;;;;0.20;0.20;;;;;;;4.90;69.82;100110.72;5047284;28;20037;-85
2023/11/29 04:53:39;;;;;;;0.10;0.10;;;;;;;4.96;70.02;100111.56;5046653;28;20110;-85
2023/11/29 04:56:06;;;;;;;0.28;0.28;;;;;;;4.95;70.02;100124.69;5045873;28;20116;-83
2023/11/29 04:58:36;;;;;;;0.20;0.20;;;;;;;4.95;69.99;100124.69;5049901;28;20446;-84
2023/11/29 05:01:02;;;;;;;0.20;0.20;;;;;;;4.92;70.41;100124.72;5047575;28;20025;-84
2023/11/29 05:03:28;;;;;;;0.15;0.15;;;;;;;4.90;70.56;100129.09;5047572;28;20449;-85
2023/11/29 05:05:54;;;;;;;0.10;0.10;;;;;;;4.97;70.41;100144.81;5049092;28;20052;-85
2023/11/29 05:08:21;;;;;;;0.15;0.15;;;;;;;4.94;70.85;100128.19;5048019;28;20025;-86
2023/11/29 05:10:47;;;;;;;0.17;0.17;;;;;;;5.13;70.35;100129.75;5050341;28;20030;-86
2023/11/29 05:13:13;;;;;;;0.20;0.20;;;;;;;5.13;70.72;100135.00;5046826;28;20033;-85
2023/11/29 05:15:41;;;;;;;0.20;0.20;;;;;;;5.29;70.33;100121.75;5046132;28;20033;-85
2023/11/29 05:18:07;;;;;;;0.20;0.20;;;;;;;5.41;70.07;100124.25;5046654;28;20021;-85
2023/11/29 05:20:33;;;;;;;0.10;0.10;;;;;;;5.44;69.76;100115.47;5048754;28;20166;-85
2023/11/29 05:23:00;;;;;;;0.20;0.20;;;;;;;5.50;69.65;100111.00;5049929;28;20106;-85
2023/11/29 05:25:26;;;;;;;0.20;0.20;;;;;;;5.46;69.44;100117.19;5050399;28;20021;-86
2023/11/29 05:27:52;;;;;;;0.20;0.20;;;;;;;5.49;69.45;100111.88;5047085;28;20026;-84
2023/11/29 05:30:18;;;;;;;0.10;0.10;;;;;;;5.51;69.11;100115.38;5061329;28;20053;-82
2023/11/29 05:32:46;;;;;;;0.17;0.17;;;;;;;5.45;68.64;100094.44;5067788;28;20029;-81
2023/11/29 05:35:12;;;;;;;0.20;0.20;;;;;;;5.55;68.49;100105.72;5068193;28;20017;-82
2023/11/29 05:37:38;;;;;;;0.20;0.20;;;;;;;5.50;68.35;100102.28;5068647;28;20051;-83
2023/11/29 05:40:08;;;;;;;0.20;0.20;;;;;;;5.49;68.27;100101.38;5054542;28;20033;-83
2023/11/29 05:42:35;;;;;;;0.20;0.20;;;;;;;5.50;68.14;100105.75;5053280;28;20100;-85
2023/11/29 05:45:03;;;;;;;0.28;0.28;;;;;;;5.56;68.25;100101.31;5055215;28;20058;-84
2023/11/29 05:47:30;;;;;;;0.20;0.20;;;;;;;5.54;67.80;100121.50;5053264;28;20037;-83
2023/11/29 05:49:56;;;;;;;0.20;0.20;;;;;;;5.69;67.85;100102.06;5044040;28;20033;-85
2023/11/29 05:52:22;;;;;;;0.20;0.20;;;;;;;5.65;67.93;100117.00;5036685;28;20029;-85
2023/11/29 05:54:48;;;;;;;0.20;0.20;;;;;;;5.73;67.75;100109.91;5037220;28;20033;-85
2023/11/29 05:57:14;;;;;;;0.20;0.20;;;;;;;5.66;67.76;100118.75;5035608;28;20032;-85
2023/11/29 05:59:41;;;;;;;0.20;0.20;;;;;;;5.49;68.69;100130.28;5035564;28;20033;-85
2023/11/29 06:02:07;;;;;;;0.10;0.10;;;;;;;5.40;69.33;100135.66;5033425;28;20029;-85
2023/11/29 06:04:33;;;;;;;0.20;0.20;;;;;;;5.47;69.28;100139.06;5034250;28;20064;-84
2023/11/29 06:06:59;;;;;;;0.20;0.20;;;;;;;5.53;69.26;100149.50;5042813;28;20079;-84
2023/11/29 06:09:28;;;;;;;0.20;0.20;;;;;;;5.53;69.37;100141.63;5044481;28;20034;-86
2023/11/29 06:11:56;;;;;;;0.20;0.20;;;;;;;5.84;68.28;100143.91;5038038;28;20042;-86
2023/11/29 06:14:22;;;;;;;0.20;0.20;;;;;;;5.81;67.93;100143.97;5033024;28;20045;-86
2023/11/29 06:16:49;;;;;;;0.20;0.20;;;;;;;5.60;68.71;100158.22;5030352;28;20033;-86
2023/11/29 06:19:15;;;;;;;0.68;0.68;;;;;;;5.58;68.95;100163.50;5031405;28;20029;-85
2023/11/29 06:21:47;;;;;;;0.20;0.20;;;;;;;5.60;69.08;100156.47;5031496;28;20121;-87
2023/11/29 06:24:16;;;;;;;0.20;0.20;;;;;;;5.65;69.23;100159.03;5033365;28;20036;-86
2023/11/29 06:26:42;;;;;;;0.20;0.20;;;;;;;5.96;68.47;100174.47;5031142;28;20038;-88
2023/11/29 06:29:09;;;;;;;0.13;0.13;;;;;;;6.06;68.00;100164.75;5032341;28;20034;-86
2023/11/29 06:31:37;;;;;;;0.20;0.20;;;;;;;6.14;67.75;100168.13;5032170;28;20040;-86
2023/11/29 06:34:07;;;;;;;0.20;0.20;;;;;;;6.17;67.75;100177.75;5030532;28;20057;-87
2023/11/29 06:36:34;;;;;;;0.20;0.20;;;;;;;6.07;68.36;100193.66;5022829;28;20032;-87
2023/11/29 06:39:01;;;;;;;0.17;0.17;;;;;;;6.14;68.42;100203.22;5031034;28;20048;-86
2023/11/29 06:41:27;;;;;;;0.20;0.20;;;;;;;6.18;67.87;100211.94;5034688;27;20459;-87
2023/11/29 06:43:54;;;;;;;0.20;0.20;;;;;;;6.20;68.04;100215.41;5031052;28;20492;-87
2023/11/29 06:46:22;;;;;;;0.20;0.20;;;;;;;6.19;67.93;100231.22;5030200;28;20094;-88
2023/11/29 06:48:48;;;;;;;0.10;0.10;;;;;;;6.25;68.01;100236.41;5030419;28;20029;-84
2023/11/29 06:51:14;;;;;;;0.20;0.20;;;;;;;6.09;68.50;100251.50;5034728;28;20082;-83
2023/11/29 06:53:40;;;;;;;0.20;0.20;;;;;;;6.05;69.14;100253.28;5035204;28;20412;-83
2023/11/29 06:56:07;;;;;;;0.20;0.20;;;;;;;5.98;68.89;100239.34;5034142;28;20044;-83
2023/11/29 06:58:33;;;;;;;0.20;0.20;;;;;;;5.84;68.60;100222.78;5032790;28;20017;-81
2023/11/29 07:00:59;;;;;;;0.20;0.20;;;;;;;5.72;68.17;100244.84;5033215;28;20037;-82
2023/11/29 07:03:26;;;;;;;0.20;0.20;;;;;;;5.60;68.13;100253.69;5031834;28;20098;-85
2023/11/29 07:05:53;;;;;;;0.20;0.20;;;;;;;5.49;68.40;100253.78;5030196;28;20037;-85
2023/11/29 07:08:19;;;;;;;0.20;0.20;;;;;;;5.40;68.48;100253.00;5026823;28;20564;-85
2023/11/29 07:10:46;;;;;;;0.20;0.20;;;;;;;5.27;68.85;100253.09;5028069;28;20381;-84
2023/11/29 07:13:12;;;;;;;0.10;0.10;;;;;;;5.22;68.90;100254.00;5032578;28;20085;-83
2023/11/29 07:15:39;;;;;;;0.13;0.13;;;;;;;5.21;68.77;100255.78;5029093;28;20033;-84
2023/11/29 07:18:05;;;;;;;0.20;0.20;;;;;;;5.19;68.93;100273.28;5026918;28;20108;-84
2023/11/29 07:20:31;;;;;;;0.20;0.20;;;;;;;5.16;69.18;100274.19;5028735;28;20564;-85
2023/11/29 07:22:57;;;;;;;0.20;0.20;;;;;;;5.13;69.79;100255.81;5028343;28;20508;-85
2023/11/29 07:25:24;;;;;;;0.20;0.20;;;;;;;5.14;69.74;100256.69;5026133;28;20053;-84
2023/11/29 07:27:50;;;;;;;0.20;0.20;;;;;;;5.12;69.56;100251.47;5029462;28;20026;-84
2023/11/29 07:30:16;;;;;;;0.20;0.20;;;;;;;5.11;69.61;100254.06;5032052;28;20044;-81
2023/11/29 07:32:43;;;;;;;0.17;0.17;;;;;;;5.11;69.63;100272.47;5029426;28;20029;-83
2023/11/29 07:35:09;;;;;;;0.20;0.20;;;;;;;5.09;69.57;100269.00;5032555;28;20029;-82
2023/11/29 07:37:36;;;;;;;0.28;0.28;;;;;;;5.08;69.73;100267.25;5031519;28;20049;-83
2023/11/29 07:40:03;;;;;;;0.20;0.20;;;;;;;5.07;69.82;100274.25;5031981;28;20408;-80
2023/11/29 07:42:29;;;;;;;0.20;0.20;;;;;;;5.06;69.78;100288.28;5032812;28;20025;-84
2023/11/29 07:44:55;;;;;;;0.20;0.20;;;;;;;5.05;69.74;100289.16;5032457;28;20041;-83
2023/11/29 07:47:21;;;;;;;0.20;0.20;;;;;;;5.01;69.89;100293.53;5032489;28;20267;-84
2023/11/29 07:49:48;;;;;;;3.50;1.85;;;;;;;4.98;70.09;100295.31;5032061;28;20524;-82
2023/11/29 07:52:14;;;;;;;0.10;0.10;;;;;;;4.97;70.00;100304.94;5030779;28;20500;-81
2023/11/29 07:54:40;;;;;;;0.20;0.20;;;;;;;4.97;70.01;100311.94;5032632;28;20388;-82
2023/11/29 07:57:06;;;;;;;0.20;0.20;;;;;;;4.98;69.96;100313.69;5032588;28;20032;-84
2023/11/29 07:59:33;;;;;;;0.13;0.13;;;;;;;4.99;70.16;100311.03;5032641;28;20041;-83
2023/11/29 08:01:59;;;;;;;0.20;0.20;;;;;;;5.06;70.11;100327.66;5030519;28;20103;-83
2023/11/29 08:04:25;;;;;;;0.10;0.10;;;;;;;5.10;70.24;100332.00;5032450;28;20029;-84
2023/11/29 08:06:51;;;;;;;0.22;0.20;;;;;;;5.11;70.29;100346.88;5032601;28;20470;-83
2023/11/29 08:09:18;;;;;;;0.20;0.20;;;;;;;5.12;70.46;100337.22;5033310;28;20104;-84
2023/11/29 08:11:45;;;;;;;0.20;0.20;;;;;;;5.08;70.94;100335.50;5032254;28;20017;-83
2023/11/29 08:14:11;;;;;;;0.20;0.20;;;;;;;5.08;70.74;100339.00;5031297;28;20029;-84
2023/11/29 08:16:38;;;;;;;0.20;0.20;;;;;;;5.18;70.65;100352.97;5028992;28;20029;-86
2023/11/29 08:19:04;;;;;;;0.13;0.13;;;;;;;5.17;70.45;100370.47;5034309;28;20112;-85
2023/11/29 08:21:31;;;;;;;0.20;0.20;;;;;;;5.21;70.52;100352.06;5046197;28;20310;-85
2023/11/29 08:23:57;;;;;;;0.20;0.20;;;;;;;5.23;70.66;100353.81;5036072;28;20098;-84
2023/11/29 08:26:23;;;;;;;0.20;0.20;;;;;;;5.24;70.76;100352.06;5032085;28;20022;-86
2023/11/29 08:28:52;;;;;;;0.20;0.20;;;;;;;5.24;70.70;100347.66;5022260;28;20036;-86
2023/11/29 08:31:18;;;;;;;0.10;0.10;;;;;;;5.25;70.80;100344.16;5026247;28;20036;-86
2023/11/29 08:33:45;;;;;;;0.10;0.10;;;;;;;5.28;70.70;100351.16;5026907;28;20427;-84
2023/11/29 08:36:12;;;;;;;0.20;0.20;;;;;;;5.29;70.62;100360.78;5030027;28;20038;-83
2023/11/29 08:38:38;;;;;;;0.20;0.20;;;;;;;5.31;70.61;100369.53;5025596;28;20029;-83
2023/11/29 08:41:04;;;;;;;0.20;0.20;;;;;;;5.36;70.54;100367.75;5040021;28;20034;-83
2023/11/29 08:43:30;;;;;;;0.10;0.10;;;;;;;5.34;70.85;100374.75;5039871;28;20029;-81
2023/11/29 08:45:57;;;;;;;0.20;0.20;;;;;;;5.32;70.90;100366.00;5039263;28;20037;-82
2023/11/29 08:48:23;;;;;;;0.20;0.20;;;;;;;5.47;70.45;100375.53;5040695;28;20026;-81
2023/11/29 08:50:49;;;;;;;0.20;0.20;;;;;;;5.45;70.42;100372.94;5043143;28;20033;-82
2023/11/29 08:53:15;;;;;;;0.15;0.15;;;;;;;5.45;70.65;100379.97;5042669;28;20033;-81
2023/11/29 08:55:42;;;;;;;0.25;0.25;;;;;;;5.47;70.57;100371.19;5039724;28;20033;-81
2023/11/29 08:58:09;;;;;;;0.20;0.20;;;;;;;5.47;70.36;100375.53;5036869;28;20025;-80
2023/11/29 09:00:36;;;;;;;0.20;0.20;;;;;;;5.44;70.20;100376.44;5036552;28;20021;-81
2023/11/29 09:03:02;;;;;;;0.20;0.20;;;;;;;5.43;70.18;100374.72;5030440;28;20483;-79
2023/11/29 09:05:29;;;;;;;0.20;0.20;;;;;;;5.44;70.20;100372.94;5038571;28;20087;-81
2023/11/29 09:07:55;;;;;;;0.20;0.20;;;;;;;5.45;70.23;100374.69;5036228;28;20067;-81
2023/11/29 09:10:21;;;;;;;0.20;0.20;;;;;;;5.45;69.85;100378.19;5032440;28;20559;-81
2023/11/29 09:12:47;;;;;;;0.20;0.20;;;;;;;5.39;70.40;100377.38;5036965;28;20116;-81
2023/11/29 09:15:14;;;;;;;0.20;0.20;;;;;;;5.51;70.04;100382.53;5040804;27;20094;-81
2023/11/29 09:17:44;;;;;;;0.20;0.20;;;;;;;5.54;70.07;100381.66;5043613;27;20013;-82
2023/11/29 09:20:10;;;;;;;0.20;0.20;;;;;;;5.59;69.70;100385.13;5042286;27;20400;-82
2023/11/29 09:22:37;;;;;;;0.20;0.20;;;;;;;5.62;69.82;100387.72;5042788;27;20036;-82
2023/11/29 09:25:04;;;;;;;0.40;0.40;;;;;;;5.67;70.04;100385.94;5039666;28;20036;-81
2023/11/29 09:27:30;;;;;;;0.20;0.20;;;;;;;5.76;69.99;100391.13;5039044;27;20033;-82
2023/11/29 09:29:56;;;;;;;0.20;0.20;;;;;;;5.85;69.87;100391.94;5044788;27;20082;-82
2023/11/29 09:32:22;;;;;;;0.20;0.20;;;;;;;5.90;69.87;100395.41;5039060;27;20044;-82
2023/11/29 09:34:48;;;;;;;0.20;0.20;;;;;;;5.93;69.33;100398.00;5041080;27;20056;-82
2023/11/29 09:37:15;;;;;;;0.10;0.10;;;;;;;5.96;69.36;100405.88;5040808;27;20014;-81
2023/11/29 09:39:41;;;;;;;0.20;0.20;;;;;;;5.98;69.20;100404.09;5043199;27;20112;-82
2023/11/29 09:42:08;;;;;;;0.20;0.20;;;;;;;6.02;69.39;100407.59;5037283;27;20031;-80
2023/11/29 09:44:39;;;;;;;0.20;0.20;;;;;;;6.06;68.98;100412.81;5040589;27;20022;-80
2023/11/29 09:47:06;;;;;;;0.20;0.20;;;;;;;6.08;68.75;100410.19;5034600;27;20028;-81
2023/11/29 09:49:32;;;;;;;0.10;0.10;;;;;;;6.15;68.81;100427.66;5046896;27;20029;-81
2023/11/29 09:51:59;;;;;;;2.17;2.05;;;;;;;6.19;68.68;100418.00;5064777;27;20027;-81
2023/11/29 09:54:25;;;;;;;0.20;0.20;;;;;;;6.18;68.87;100422.41;5042885;27;20117;-81
2023/11/29 09:56:51;;;;;;;0.10;0.10;;;;;;;6.23;68.39;100414.44;5047738;27;20456;-81
2023/11/29 09:59:21;;;;;;;0.20;0.20;;;;;;;6.15;67.55;100404.84;5057422;27;20033;-81
2023/11/29 10:01:47;;;;;;;0.20;0.20;;;;;;;6.09;66.62;100404.03;5075738;27;20040;-81
2023/11/29 10:04:14;;;;;;;0.30;0.30;;;;;;;6.12;67.16;100404.88;5057900;27;20023;-80
2023/11/29 10:06:41;;;;;;;0.20;0.20;;;;;;;6.19;66.89;100405.69;5043247;27;20037;-82
2023/11/29 10:09:12;;;;;;;0.20;0.20;;;;;;;6.29;67.78;100398.59;5078182;27;20029;-82
2023/11/29 10:11:41;;;;;;;0.20;0.20;;;;;;;6.35;67.98;100393.28;5038987;28;20053;-82
2023/11/29 10:14:07;;;;;;;0.20;0.20;;;;;;;6.34;67.00;100401.19;5061035;27;20025;-82
2023/11/29 10:16:33;;;;;;;0.20;0.20;;;;;;;6.35;67.75;100414.31;5061099;27;20037;-80
2023/11/29 10:19:05;;;;;;;0.20;0.20;;;;;;;6.44;67.86;100419.50;5077665;27;20015;-81
2023/11/29 10:21:32;;;;;;;0.30;0.30;;;;;;;6.52;67.54;100415.91;5056895;27;20052;-81
2023/11/29 10:23:58;;;;;;;0.20;0.20;;;;;;;6.60;66.77;100414.09;5069141;27;20055;-80
2023/11/29 10:26:25;;;;;;;0.20;0.20;;;;;;;6.62;66.35;100414.94;5062615;27;20052;-81
2023/11/29 10:28:53;;;;;;;0.10;0.10;;;;;;;6.59;65.77;100414.97;5077345;27;20033;-78
2023/11/29 10:31:21;;;;;;;0.20;0.20;;;;;;;6.52;65.70;100415.91;5068447;27;20018;-79
2023/11/29 10:33:49;;;;;;;0.10;0.10;;;;;;;6.43;65.38;100422.13;5089683;27;20025;-80
2023/11/29 10:36:19;;;;;;;0.10;0.10;;;;;;;6.36;65.18;100431.00;5081487;27;20068;-77
2023/11/29 10:38:58;;;;;;;0.20;0.20;;;;;;;6.40;65.93;100423.03;5081303;27;20037;-80
2023/11/29 10:41:27;;;;;;;0.20;0.20;;;;;;;6.28;65.16;100431.94;5066954;27;20026;-80
2023/11/29 10:43:59;;;;;;;0.20;0.20;;;;;;;6.15;65.09;100428.53;5092203;27;19998;-79
2023/11/29 10:46:32;;;;;;;0.30;0.30;;;;;;;6.09;65.11;100419.81;5069339;27;20029;-81
2023/11/29 10:49:02;;;;;;;;;;;;;;;6.20;65.82;100411.84;5066739;27;20033;-80
2023/11/29 10:51:30;;;;;;;0.20;0.20;;;;;;;6.06;66.58;100423.34;5059598;27;19909;-81
2023/11/29 10:53:58;;;;;;;0.15;0.15;;;;;;;6.18;67.09;100422.41;5050955;27;20058;-81
2023/11/29 10:56:25;;;;;;;0.20;0.20;;;;;;;6.27;67.23;100414.41;5038436;27;20030;-80
2023/11/29 11:01:55;;;;;;;0.20;0.20;;;;;;;6.49;67.51;100422.06;5117431;27;20405;-81
2023/11/29 11:04:22;;;;;;;0.20;0.20;;;;;;;6.51;67.48;100430.84;5118341;28;20088;-80
2023/11/29 11:06:49;;;;;;;0.20;0.20;;;;;;;6.60;67.70;100427.25;5115705;28;20028;-85
2023/11/29 11:12:08;;;;;;;0.20;0.20;;;;;;;6.77;67.31;100432.34;5070432;28;20394;-80
2023/11/29 11:17:13;;;;;;;0.17;0.17;;;;;;;6.74;66.69;100425.34;5113730;27;20503;-81
2023/11/29 11:19:42;;;;;;;0.15;0.15;;;;;;;6.85;67.38;100433.09;5093663;28;20024;-80
2023/11/29 11:22:11;;;;;;;0.20;0.20;;;;;;;6.94;67.13;100424.22;5091978;28;20054;-80
2023/11/29 11:27:43;;;;;;;0.20;0.20;;;;;;;7.22;67.22;100429.19;5074471;28;20094;-80
2023/11/29 11:32:52;;;;;;;1.52;1.42;;;;;;;7.27;66.05;100422.06;5113744;27;20392;-81
2023/11/29 11:38:07;;;;;;;0.20;0.20;;;;;;;7.25;65.96;100423.84;5115151;27;20335;-79
2023/11/29 11:40:37;;;;;;;0.15;0.15;;;;;;;7.18;65.92;100416.91;5093675;28;20111;-82
2023/11/29 11:43:05;;;;;;;0.20;0.20;;;;;;;7.07;65.64;100420.56;5109130;28;20027;-81
2023/11/29 11:45:32;;;;;;;0.40;0.40;;;;;;;7.07;65.42;100420.56;5100330;28;20032;-80
2023/11/29 11:48:01;;;;;;;0.20;0.20;;;;;;;7.06;65.79;100420.59;5092999;28;20043;-80
2023/11/29 11:50:27;;;;;;;0.20;0.20;;;;;;;7.05;65.40;100418.84;5109559;28;20032;-80
2023/11/29 11:52:54;;;;;;;0.20;0.20;;;;;;;7.05;66.09;100417.09;5114187;28;20050;-80
2023/11/29 11:55:20;;;;;;;0.20;0.20;;;;;;;7.01;65.98;100420.63;5106576;28;20028;-81